createdAt,value
2023-06-23T00:00:35.361Z,40.90
2023-06-23T00:01:35.447Z,37.30
2023-06-23T00:02:35.405Z,35.20
2023-06-23T00:03:35.380Z,32.10
2023-06-23T00:04:35.341Z,39.20
2023-06-23T00:05:35.478Z,40.20
2023-06-23T00:06:35.324Z,33.20
2023-06-23T00:07:35.309Z,31.50
2023-06-23T00:08:35.363Z,38.40
2023-06-23T00:09:35.301Z,34.10
2023-06-23T00:10:35.237Z,35.70
2023-06-23T00:11:35.287Z,42.10
2023-06-23T00:12:35.237Z,33.80
2023-06-23T00:13:35.202Z,33.10
2023-06-23T00:14:35.222Z,37.20
2023-06-23T00:15:35.280Z,36.30
2023-06-23T00:16:35.206Z,36.20
2023-06-23T00:17:35.212Z,36.30
2023-06-23T00:18:35.196Z,40.80
2023-06-23T00:19:35.146Z,34.40
2023-06-23T00:20:35.167Z,33.80
2023-06-23T00:21:35.160Z,54.80
2023-06-23T00:22:35.181Z,32.50
2023-06-23T00:23:35.125Z,41.10
2023-06-23T00:24:35.242Z,37.50
2023-06-23T00:25:35.278Z,43.70
2023-06-23T00:26:35.131Z,33.80
2023-06-23T00:27:35.062Z,38.40
2023-06-23T00:28:35.138Z,30.10
2023-06-23T00:29:35.070Z,37.90
2023-06-23T00:30:35.112Z,35.40
2023-06-23T00:31:35.088Z,35.50
2023-06-23T00:32:35.081Z,33.20
2023-06-23T00:33:35.229Z,31.40
2023-06-23T00:34:34.999Z,32.20
2023-06-23T00:35:34.978Z,31.30
2023-06-23T00:36:34.981Z,30.30
2023-06-23T00:37:34.957Z,41.60
2023-06-23T00:38:34.975Z,38.20
2023-06-23T00:39:34.901Z,33.80
2023-06-23T00:40:34.926Z,40.10
2023-06-23T00:41:35.145Z,32.70
2023-06-23T00:42:34.931Z,32.80
2023-06-23T00:43:34.896Z,33.30
2023-06-23T00:44:34.896Z,36.70
2023-06-23T00:45:35.133Z,40.20
2023-06-23T00:46:34.882Z,33.60
2023-06-23T00:47:34.846Z,30.00
2023-06-23T00:48:34.887Z,32.60
2023-06-23T00:49:34.848Z,32.50
2023-06-23T00:50:34.830Z,34.50
2023-06-23T00:51:34.927Z,41.10
2023-06-23T00:52:34.777Z,34.70
2023-06-23T00:53:34.834Z,34.40
2023-06-23T00:54:34.788Z,32.90
2023-06-23T00:55:35.011Z,36.50
2023-06-23T00:56:35.025Z,40.20
2023-06-23T00:57:34.756Z,37.30
2023-06-23T00:58:34.776Z,40.80
2023-06-23T00:59:35.277Z,35.40
2023-06-23T01:00:34.841Z,39.90
2023-06-23T01:01:35.534Z,32.50
2023-06-23T01:02:34.734Z,34.70
2023-06-23T01:03:34.874Z,40.20
2023-06-23T01:04:34.868Z,35.20
2023-06-23T01:05:35.021Z,39.70
2023-06-23T01:06:34.674Z,39.20
2023-06-23T01:07:34.699Z,33.20
2023-06-23T01:08:34.653Z,42.50
2023-06-23T01:09:34.657Z,34.60
2023-06-23T01:10:34.637Z,39.30
2023-06-23T01:11:34.648Z,40.40
2023-06-23T01:12:34.614Z,34.90
2023-06-23T01:13:34.599Z,34.80
2023-06-23T01:14:34.619Z,36.80
2023-06-23T01:15:34.840Z,35.40
2023-06-23T01:16:34.743Z,38.00
2023-06-23T01:17:34.700Z,31.50
2023-06-23T01:18:34.687Z,34.30
2023-06-23T01:19:34.620Z,33.80
2023-06-23T01:20:34.571Z,32.60
2023-06-23T01:21:34.784Z,34.00
2023-06-23T01:22:34.540Z,40.30
2023-06-23T01:23:34.912Z,32.20
2023-06-23T01:24:35.042Z,36.90
2023-06-23T01:25:34.946Z,30.70
2023-06-23T01:26:34.471Z,35.50
2023-06-23T01:27:34.664Z,39.60
2023-06-23T01:28:34.614Z,36.50
2023-06-23T01:29:35.034Z,44.00
2023-06-23T01:30:34.703Z,35.30
2023-06-23T01:31:34.483Z,33.20
2023-06-23T01:32:34.712Z,35.90
2023-06-23T01:33:34.511Z,38.20
2023-06-23T01:34:34.544Z,40.70
2023-06-23T01:35:34.760Z,37.70
2023-06-23T01:36:35.088Z,45.50
2023-06-23T01:37:34.761Z,41.30
2023-06-23T01:40:05.525Z,42.70
2023-06-23T01:41:06.396Z,45.20
2023-06-23T01:42:07.082Z,39.30
2023-06-23T01:43:06.200Z,38.90
2023-06-23T01:44:06.298Z,42.20
2023-06-23T01:45:06.266Z,44.40
2023-06-23T01:46:07.072Z,40.30
2023-06-23T01:47:06.207Z,37.20
2023-06-23T01:48:06.227Z,42.00
2023-06-23T01:49:06.199Z,39.20
2023-06-23T01:50:06.357Z,42.30
2023-06-23T01:51:06.539Z,39.20
2023-06-23T01:52:06.393Z,43.90
2023-06-23T01:53:07.111Z,36.80
2023-06-23T01:54:06.436Z,39.80
2023-06-23T01:55:11.530Z,67.90
2023-06-23T01:56:10.301Z,37.60
2023-06-23T01:57:06.030Z,42.10
2023-06-23T01:58:06.163Z,41.90
2023-06-23T01:59:05.984Z,39.20
2023-06-23T02:00:06.400Z,40.50
2023-06-23T02:01:06.431Z,36.10
2023-06-23T02:02:05.982Z,39.70
2023-06-23T02:03:06.685Z,35.10
2023-06-23T02:04:06.704Z,35.70
2023-06-23T02:05:06.209Z,36.00
2023-06-23T02:07:37.443Z,38.40
2023-06-23T02:08:41.285Z,36.10
2023-06-23T02:09:35.624Z,41.10
2023-06-23T02:10:49.316Z,41.10
2023-06-23T02:11:36.709Z,47.50
2023-06-23T02:12:34.527Z,49.20
2023-06-23T02:13:34.310Z,44.20
2023-06-23T02:14:43.853Z,39.30
2023-06-23T02:15:50.206Z,34.60
2023-06-23T02:16:34.669Z,32.90
2023-06-23T02:17:35.037Z,37.30
2023-06-23T02:18:35.061Z,40.20
2023-06-23T02:21:46.575Z,38.00
2023-06-23T02:21:53.228Z,35.60
2023-06-23T02:23:00.083Z,42.90
2023-06-23T02:23:53.705Z,37.70
2023-06-23T02:25:25.400Z,40.90
2023-06-23T02:26:01.563Z,38.20
2023-06-23T02:27:19.947Z,45.70
2023-06-23T02:27:54.627Z,38.20
2023-06-23T02:28:54.520Z,40.80
2023-06-23T02:31:31.413Z,44.50
2023-06-23T02:33:48.286Z,44.00
2023-06-23T02:34:29.423Z,49.20
2023-06-23T02:36:35.820Z,53.30
2023-06-23T02:37:51.278Z,50.40
2023-06-23T02:40:26.727Z,47.10
2023-06-23T02:40:34.679Z,45.00
2023-06-23T02:41:36.915Z,47.60
2023-06-23T02:42:33.465Z,48.10
2023-06-23T02:43:34.400Z,58.30
2023-06-23T02:44:53.074Z,44.10
2023-06-23T02:46:57.326Z,51.00
2023-06-23T02:47:51.396Z,55.00
2023-06-23T02:48:52.320Z,49.10
2023-06-23T02:50:01.800Z,46.40
2023-06-23T02:50:50.262Z,51.30
2023-06-23T02:51:51.789Z,49.10
2023-06-23T02:52:50.044Z,41.70
2023-06-23T02:53:54.608Z,48.60
2023-06-23T02:54:50.340Z,46.30
2023-06-23T02:55:50.638Z,49.60
2023-06-23T02:56:50.481Z,47.90
2023-06-23T02:57:50.873Z,51.50
2023-06-23T02:58:50.438Z,45.60
2023-06-23T02:59:50.108Z,49.80
2023-06-23T03:00:50.445Z,50.80
2023-06-23T03:01:49.984Z,52.70
2023-06-23T03:02:50.069Z,47.50
2023-06-23T03:03:50.181Z,62.00
2023-06-23T03:04:50.051Z,52.30
2023-06-23T03:05:50.696Z,48.80
2023-06-23T03:06:52.435Z,52.40
2023-06-23T03:07:50.163Z,48.80
2023-06-23T03:08:50.385Z,55.90
2023-06-23T03:09:50.020Z,57.70
2023-06-23T03:10:49.760Z,49.00
2023-06-23T03:11:50.152Z,49.80
2023-06-23T03:12:49.932Z,50.10
2023-06-23T03:13:49.861Z,62.90
2023-06-23T03:14:50.438Z,48.70
2023-06-23T03:15:50.861Z,47.20
2023-06-23T03:16:50.273Z,47.30
2023-06-23T03:17:49.847Z,54.30
2023-06-23T03:18:50.628Z,49.10
2023-06-23T03:19:49.956Z,50.70
2023-06-23T03:20:49.897Z,52.30
2023-06-23T03:21:49.716Z,50.20
2023-06-23T03:22:49.684Z,51.10
2023-06-23T03:23:49.776Z,48.20
2023-06-23T03:24:50.175Z,50.50
2023-06-23T03:25:49.742Z,62.00
2023-06-23T03:26:49.649Z,55.80
2023-06-23T03:27:49.613Z,58.80
2023-06-23T03:28:49.865Z,72.60
2023-06-23T03:29:49.661Z,56.60
2023-06-23T03:30:50.295Z,56.40
2023-06-23T03:31:49.818Z,68.90
2023-06-23T03:32:49.722Z,83.10
2023-06-23T03:33:49.620Z,59.50
2023-06-23T03:34:49.582Z,63.20
2023-06-23T03:35:49.597Z,61.00
2023-06-23T03:36:49.733Z,66.30
2023-06-23T03:37:49.707Z,90.90
2023-06-23T03:38:49.638Z,59.50
2023-06-23T03:39:49.663Z,81.40
2023-06-23T03:40:53.557Z,68.10
2023-06-23T03:41:50.168Z,95.70
2023-06-23T03:42:49.525Z,68.10
2023-06-23T03:43:49.693Z,65.00
2023-06-23T03:44:49.955Z,69.80
2023-06-23T03:45:49.660Z,67.00
2023-06-23T03:46:51.368Z,62.90
2023-06-23T03:47:49.920Z,70.10
2023-06-23T03:48:49.733Z,68.10
2023-06-23T03:49:49.612Z,65.90
2023-06-23T03:50:49.618Z,68.90
2023-06-23T03:51:49.908Z,67.40
2023-06-23T03:52:50.794Z,76.60
2023-06-23T03:53:49.541Z,68.20
2023-06-23T03:54:49.617Z,66.40
2023-06-23T03:55:49.508Z,72.30
2023-06-23T03:56:50.464Z,70.00
2023-06-23T03:57:50.369Z,68.20
2023-06-23T04:00:17.886Z,74.00
2023-06-23T04:01:19.461Z,69.00
2023-06-23T04:02:18.163Z,68.50
2023-06-23T04:03:18.160Z,70.70
2023-06-23T04:04:18.298Z,67.60
2023-06-23T04:05:18.675Z,68.20
2023-06-23T04:06:18.353Z,71.20
2023-06-23T04:07:19.250Z,66.80
2023-06-23T04:08:18.062Z,67.80
2023-06-23T04:09:18.147Z,71.10
2023-06-23T04:10:18.145Z,65.30
2023-06-23T04:11:18.033Z,67.50
2023-06-23T04:12:18.035Z,62.50
2023-06-23T04:13:18.118Z,65.70
2023-06-23T04:14:18.312Z,69.40
2023-06-23T04:15:17.992Z,64.50
2023-06-23T04:16:18.013Z,63.40
2023-06-23T04:17:18.176Z,64.30
2023-06-23T04:18:18.046Z,60.40
2023-06-23T04:19:17.907Z,59.30
2023-06-23T04:20:17.938Z,64.90
2023-06-23T04:21:17.910Z,76.60
2023-06-23T04:22:17.933Z,55.80
2023-06-23T04:23:17.893Z,59.30
2023-06-23T04:24:17.897Z,66.60
2023-06-23T04:25:19.056Z,60.40
2023-06-23T04:26:17.945Z,60.80
2023-06-23T04:27:17.844Z,64.30
2023-06-23T04:28:17.882Z,65.70
2023-06-23T04:29:17.883Z,62.70
2023-06-23T04:30:17.920Z,64.30
2023-06-23T04:31:17.865Z,65.10
2023-06-23T04:32:17.889Z,63.50
2023-06-23T04:33:17.758Z,71.00
2023-06-23T04:34:17.768Z,59.10
2023-06-23T04:35:17.800Z,74.10
2023-06-23T04:36:17.773Z,72.40
2023-06-23T04:37:17.990Z,59.30
2023-06-23T04:38:18.004Z,66.80
2023-06-23T04:39:17.689Z,61.10
2023-06-23T04:40:17.876Z,57.90
2023-06-23T04:41:17.718Z,59.30
2023-06-23T04:42:17.685Z,60.50
2023-06-23T04:43:17.800Z,59.80
2023-06-23T04:44:17.754Z,75.50
2023-06-23T04:45:17.659Z,64.90
2023-06-23T04:46:17.704Z,73.80
2023-06-23T04:47:17.632Z,63.40
2023-06-23T04:48:17.606Z,63.30
2023-06-23T04:49:17.607Z,73.90
2023-06-23T04:50:17.988Z,59.30
2023-06-23T04:51:17.603Z,59.30
2023-06-23T04:52:17.633Z,52.50
2023-06-23T04:53:17.582Z,56.40
2023-06-23T04:54:17.570Z,54.70
2023-06-23T04:55:17.573Z,60.30
2023-06-23T04:56:17.530Z,55.70
2023-06-23T04:57:17.574Z,65.40
2023-06-23T04:58:17.544Z,67.10
2023-06-23T04:59:17.472Z,65.90
2023-06-23T05:00:17.512Z,65.20
2023-06-23T05:01:17.533Z,57.50
2023-06-23T05:02:17.539Z,63.90
2023-06-23T05:03:17.634Z,58.30
2023-06-23T05:04:17.617Z,77.00
2023-06-23T05:05:17.483Z,55.60
2023-06-23T05:06:17.454Z,54.80
2023-06-23T05:07:17.458Z,62.30
2023-06-23T05:08:17.430Z,60.40
2023-06-23T05:09:17.415Z,64.40
2023-06-23T05:10:17.419Z,60.60
2023-06-23T05:11:17.346Z,73.10
2023-06-23T05:12:17.390Z,60.70
2023-06-23T05:13:17.325Z,60.80
2023-06-23T05:14:17.328Z,58.40
2023-06-23T05:15:17.361Z,71.10
2023-06-23T05:16:17.386Z,70.80
2023-06-23T05:17:17.384Z,61.80
2023-06-23T05:18:17.372Z,58.60
2023-06-23T05:19:17.332Z,54.80
2023-06-23T05:20:17.301Z,64.90
2023-06-23T05:21:17.278Z,63.80
2023-06-23T05:22:17.313Z,58.50
2023-06-23T05:23:17.325Z,55.60
2023-06-23T05:24:17.241Z,58.20
2023-06-23T05:25:17.288Z,61.80
2023-06-23T05:26:17.224Z,62.70
2023-06-23T05:27:17.232Z,65.80
2023-06-23T05:28:17.238Z,58.70
2023-06-23T05:29:17.286Z,59.40
2023-06-23T05:30:17.224Z,58.80
2023-06-23T05:31:17.198Z,60.80
2023-06-23T05:32:17.194Z,55.70
2023-06-23T05:33:17.132Z,54.50
2023-06-23T05:34:17.144Z,58.50
2023-06-23T05:35:17.238Z,57.50
2023-06-23T05:36:17.201Z,60.10
2023-06-23T05:37:17.155Z,52.20
2023-06-23T05:38:17.205Z,53.70
2023-06-23T05:39:17.113Z,59.30
2023-06-23T05:40:17.058Z,65.90
2023-06-23T05:41:17.058Z,58.60
2023-06-23T05:42:17.055Z,51.80
2023-06-23T05:43:17.149Z,57.90
2023-06-23T05:44:17.050Z,60.60
2023-06-23T05:45:17.084Z,58.30
2023-06-23T05:46:17.085Z,59.80
2023-06-23T05:47:17.180Z,54.70
2023-06-23T05:48:17.041Z,63.90
2023-06-23T05:49:16.971Z,63.90
2023-06-23T05:50:16.971Z,58.80
2023-06-23T05:51:16.982Z,56.40
2023-06-23T05:52:17.029Z,57.70
2023-06-23T05:53:16.961Z,56.30
2023-06-23T05:54:16.908Z,51.60
2023-06-23T05:55:17.534Z,82.40
2023-06-23T05:56:16.877Z,52.70
2023-06-23T05:57:16.910Z,53.80
2023-06-23T05:58:16.933Z,52.60
2023-06-23T05:59:16.840Z,100.40
2023-06-23T06:00:16.855Z,58.30
2023-06-23T06:01:16.939Z,53.40
2023-06-23T06:02:16.838Z,47.10
2023-06-23T06:03:16.955Z,54.90
2023-06-23T06:04:16.819Z,51.10
2023-06-23T06:05:16.829Z,58.20
2023-06-23T06:06:16.841Z,59.20
2023-06-23T06:07:16.809Z,52.80
2023-06-23T06:08:16.788Z,50.60
2023-06-23T06:09:16.829Z,46.90
2023-06-23T06:10:16.773Z,52.20
2023-06-23T06:11:16.758Z,63.20
2023-06-23T06:12:16.837Z,51.40
2023-06-23T06:13:16.920Z,61.00
2023-06-23T06:14:16.720Z,52.70
2023-06-23T06:15:16.763Z,52.90
2023-06-23T06:16:16.701Z,51.10
2023-06-23T06:17:16.709Z,48.40
2023-06-23T06:18:16.689Z,46.30
2023-06-23T06:19:16.688Z,51.80
2023-06-23T06:20:16.679Z,46.40
2023-06-23T06:21:16.754Z,44.20
2023-06-23T06:22:16.647Z,43.90
2023-06-23T06:23:25.490Z,47.60
2023-06-23T06:24:16.617Z,45.40
2023-06-23T06:25:16.610Z,36.10
2023-06-23T06:26:16.638Z,44.40
2023-06-23T06:27:16.605Z,40.50
2023-06-23T06:28:16.625Z,41.30
2023-06-23T06:29:16.586Z,38.60
2023-06-23T06:30:16.610Z,50.10
2023-06-23T06:31:16.607Z,42.00
2023-06-23T06:32:16.582Z,38.40
2023-06-23T06:33:16.563Z,40.10
2023-06-23T06:34:16.569Z,40.60
2023-06-23T06:35:16.549Z,38.70
2023-06-23T06:36:16.724Z,33.70
2023-06-23T06:37:16.478Z,34.80
2023-06-23T06:38:16.493Z,37.20
2023-06-23T06:39:16.462Z,32.50
2023-06-23T06:40:16.567Z,34.80
2023-06-23T06:41:16.498Z,40.00
2023-06-23T06:42:16.598Z,29.70
2023-06-23T06:43:16.673Z,32.50
2023-06-23T06:44:16.466Z,34.80
2023-06-23T06:45:16.477Z,34.70
2023-06-23T06:46:16.451Z,35.90
2023-06-23T06:47:16.518Z,40.20
2023-06-23T06:48:16.420Z,33.80
2023-06-23T06:49:16.554Z,36.10
2023-06-23T06:50:16.360Z,33.20
2023-06-23T06:51:16.421Z,29.50
2023-06-23T06:52:16.432Z,31.80
2023-06-23T06:53:16.431Z,31.30
2023-06-23T06:54:18.202Z,35.80
2023-06-23T06:55:16.362Z,34.10
2023-06-23T06:56:16.614Z,30.80
2023-06-23T06:57:16.430Z,30.90
2023-06-23T06:58:16.361Z,30.20
2023-06-23T06:59:16.289Z,28.60
2023-06-23T07:00:16.300Z,24.90
2023-06-23T07:01:16.334Z,26.90
2023-06-23T07:02:16.236Z,24.60
2023-06-23T07:03:16.452Z,20.50
2023-06-23T07:04:16.214Z,26.80
2023-06-23T07:05:16.226Z,27.90
2023-06-23T07:06:16.264Z,23.80
2023-06-23T07:07:16.340Z,23.80
2023-06-23T07:08:16.482Z,25.00
2023-06-23T07:09:16.328Z,20.60
2023-06-23T07:10:16.167Z,21.30
2023-06-23T07:11:16.388Z,22.10
2023-06-23T07:12:16.470Z,20.80
2023-06-23T07:13:21.841Z,24.10
2023-06-23T07:14:16.248Z,21.40
2023-06-23T07:15:32.720Z,21.70
2023-06-23T07:16:16.314Z,24.20
2023-06-23T07:17:16.733Z,17.20
2023-06-23T07:18:16.053Z,20.60
2023-06-23T07:19:16.107Z,18.70
2023-06-23T07:20:16.111Z,20.20
2023-06-23T07:21:16.042Z,20.30
2023-06-23T07:22:16.081Z,18.80
2023-06-23T07:23:16.000Z,16.50
2023-06-23T07:24:16.050Z,18.60
2023-06-23T07:25:16.243Z,18.00
2023-06-23T07:26:16.063Z,19.20
2023-06-23T07:27:16.035Z,19.90
2023-06-23T07:28:16.154Z,18.80
2023-06-23T07:29:15.931Z,19.20
2023-06-23T07:30:16.041Z,17.30
2023-06-23T07:31:16.011Z,17.00
2023-06-23T07:32:16.028Z,16.10
2023-06-23T07:33:16.704Z,16.80
2023-06-23T07:34:16.345Z,15.70
2023-06-23T07:35:15.908Z,14.60
2023-06-23T07:36:16.542Z,14.50
2023-06-23T07:37:15.941Z,16.00
2023-06-23T07:38:16.179Z,16.20
2023-06-23T07:39:15.866Z,10.20
2023-06-23T07:40:15.866Z,11.90
2023-06-23T07:41:15.894Z,12.30
2023-06-23T07:42:15.841Z,10.70
2023-06-23T07:43:16.115Z,12.00
2023-06-23T07:44:15.896Z,10.60
2023-06-23T07:45:15.806Z,14.20
2023-06-23T07:46:16.228Z,10.80
2023-06-23T07:47:16.120Z,11.70
2023-06-23T07:48:15.959Z,11.20
2023-06-23T07:49:15.860Z,11.40
2023-06-23T07:50:15.734Z,13.30
2023-06-23T07:51:15.704Z,12.40
2023-06-23T07:52:15.786Z,13.70
2023-06-23T07:53:16.080Z,8.60
2023-06-23T07:54:15.702Z,11.80
2023-06-23T07:55:16.688Z,14.70
2023-06-23T07:56:16.855Z,8.30
2023-06-23T07:57:15.907Z,10.80
2023-06-23T07:58:16.237Z,12.20
2023-06-23T07:59:39.405Z,9.40
2023-06-23T08:00:16.859Z,10.40
2023-06-23T08:01:15.753Z,11.20
2023-06-23T08:02:15.650Z,12.20
2023-06-23T08:03:16.256Z,11.60
2023-06-23T08:04:16.291Z,11.60
2023-06-23T08:05:17.844Z,11.70
2023-06-23T08:06:15.813Z,10.10
2023-06-23T08:07:15.670Z,9.60
2023-06-23T08:08:16.224Z,11.60
2023-06-23T08:09:15.829Z,13.80
2023-06-23T08:10:15.667Z,12.80
2023-06-23T08:11:15.762Z,10.90
2023-06-23T08:12:16.047Z,11.40
2023-06-23T08:13:15.630Z,11.00
2023-06-23T08:14:15.762Z,11.30
2023-06-23T08:15:16.242Z,10.20
2023-06-23T08:16:15.813Z,11.30
2023-06-23T08:17:15.572Z,9.20
2023-06-23T08:18:15.680Z,9.60
2023-06-23T08:19:15.511Z,11.10
2023-06-23T08:20:15.570Z,8.60
2023-06-23T08:21:15.641Z,10.00
2023-06-23T08:22:15.589Z,8.40
2023-06-23T08:23:15.552Z,8.40
2023-06-23T08:24:15.764Z,8.60
2023-06-23T08:25:15.520Z,9.30
2023-06-23T08:26:15.471Z,9.90
2023-06-23T08:27:15.615Z,11.10
2023-06-23T08:28:15.761Z,9.80
2023-06-23T08:29:16.219Z,9.80
2023-06-23T08:30:17.108Z,9.00
2023-06-23T08:31:16.020Z,11.10
2023-06-23T08:32:16.829Z,13.00
2023-06-23T08:33:16.282Z,11.10
2023-06-23T08:34:16.112Z,11.30
2023-06-23T08:35:15.718Z,10.70
2023-06-23T08:36:16.386Z,12.80
2023-06-23T08:37:15.909Z,11.10
2023-06-23T08:38:16.181Z,13.90
2023-06-23T08:39:16.226Z,13.40
2023-06-23T08:40:15.743Z,10.20
2023-06-23T08:41:17.059Z,12.70
2023-06-23T08:42:15.669Z,10.50
2023-06-23T08:43:15.888Z,11.30
2023-06-23T08:44:15.217Z,9.50
2023-06-23T08:45:16.413Z,9.00
2023-06-23T08:46:16.169Z,12.30
2023-06-23T08:47:15.221Z,13.50
2023-06-23T08:48:15.294Z,10.70
2023-06-23T08:49:16.237Z,12.00
2023-06-23T08:50:17.069Z,10.10
2023-06-23T08:51:15.804Z,9.00
2023-06-23T08:52:15.328Z,10.60
2023-06-23T08:53:15.170Z,7.10
2023-06-23T08:54:16.413Z,6.30
2023-06-23T08:55:15.153Z,6.50
2023-06-23T08:56:15.342Z,7.70
2023-06-23T08:57:15.479Z,6.80
2023-06-23T08:58:15.393Z,7.60
2023-06-23T08:59:15.122Z,7.20
2023-06-23T09:00:15.455Z,6.90
2023-06-23T09:01:15.383Z,5.90
2023-06-23T09:02:15.050Z,6.30
2023-06-23T09:03:15.092Z,7.80
2023-06-23T09:04:15.152Z,8.30
2023-06-23T09:05:15.032Z,8.50
2023-06-23T09:06:14.962Z,7.20
2023-06-23T09:07:14.962Z,7.00
2023-06-23T09:08:14.949Z,7.80
2023-06-23T09:09:22.543Z,9.00
2023-06-23T09:10:32.085Z,7.90
2023-06-23T09:11:15.095Z,7.60
2023-06-23T09:12:15.029Z,10.60
2023-06-23T09:13:14.991Z,8.20
2023-06-23T09:14:14.878Z,7.10
2023-06-23T09:15:14.915Z,8.30
2023-06-23T09:16:14.990Z,10.10
2023-06-23T09:17:14.940Z,7.70
2023-06-23T09:18:14.992Z,6.70
2023-06-23T09:19:15.933Z,10.30
2023-06-23T09:20:14.846Z,7.90
2023-06-23T09:21:14.933Z,7.50
2023-06-23T09:22:14.912Z,7.10
2023-06-23T09:23:14.867Z,6.50
2023-06-23T09:24:15.219Z,7.60
2023-06-23T09:25:14.900Z,8.00
2023-06-23T09:26:14.924Z,7.70
2023-06-23T09:27:14.811Z,6.10
2023-06-23T09:28:14.892Z,8.20
2023-06-23T09:29:15.025Z,8.90
2023-06-23T09:30:14.805Z,6.70
2023-06-23T09:31:15.628Z,7.40
2023-06-23T09:32:14.954Z,7.80
2023-06-23T09:33:14.737Z,7.90
2023-06-23T09:34:14.772Z,10.40
2023-06-23T09:35:16.608Z,9.70
2023-06-23T09:36:14.802Z,7.70
2023-06-23T09:37:14.673Z,8.90
2023-06-23T09:38:14.703Z,6.80
2023-06-23T09:39:14.777Z,8.50
2023-06-23T09:40:14.811Z,7.10
2023-06-23T09:41:14.763Z,8.30
2023-06-23T09:42:14.789Z,8.60
2023-06-23T09:43:14.606Z,9.20
2023-06-23T09:44:15.154Z,9.10
2023-06-23T09:45:14.641Z,8.80
2023-06-23T09:46:14.832Z,11.90
2023-06-23T09:47:14.754Z,9.70
2023-06-23T09:48:14.846Z,10.70
2023-06-23T09:49:14.840Z,8.90
2023-06-23T09:50:15.417Z,10.50
2023-06-23T09:51:16.392Z,9.50
2023-06-23T09:52:14.531Z,10.20
2023-06-23T09:53:14.725Z,7.80
2023-06-23T09:54:14.525Z,9.40
2023-06-23T09:55:14.517Z,9.10
2023-06-23T09:56:14.464Z,11.00
2023-06-23T09:57:14.521Z,10.00
2023-06-23T09:58:14.462Z,8.50
2023-06-23T09:59:14.730Z,9.50
2023-06-23T10:00:14.546Z,9.60
2023-06-23T10:01:14.462Z,7.70
2023-06-23T10:02:14.447Z,9.90
2023-06-23T10:03:14.483Z,9.30
2023-06-23T10:04:14.650Z,10.10
2023-06-23T10:05:23.909Z,10.30
2023-06-23T10:06:14.363Z,8.90
2023-06-23T10:07:14.329Z,7.80
2023-06-23T10:08:14.399Z,9.60
2023-06-23T10:09:14.303Z,10.50
2023-06-23T10:10:21.439Z,10.70
2023-06-23T10:11:14.371Z,10.00
2023-06-23T10:12:14.284Z,12.60
2023-06-23T10:13:14.254Z,11.60
2023-06-23T10:14:14.521Z,9.40
2023-06-23T10:15:14.308Z,8.60
2023-06-23T10:16:14.723Z,10.20
2023-06-23T10:17:14.806Z,8.20
2023-06-23T10:18:14.556Z,10.50
2023-06-23T10:19:14.224Z,8.20
2023-06-23T10:20:14.328Z,9.90
2023-06-23T10:21:14.287Z,9.70
2023-06-23T10:22:14.226Z,10.50
2023-06-23T10:23:14.264Z,9.40
2023-06-23T10:24:14.267Z,8.80
2023-06-23T10:25:14.129Z,9.10
2023-06-23T10:26:15.717Z,10.30
2023-06-23T10:27:14.167Z,8.60
2023-06-23T10:28:14.115Z,8.40
2023-06-23T10:29:14.197Z,9.50
2023-06-23T10:30:14.322Z,11.90
2023-06-23T10:31:14.164Z,10.70
2023-06-23T10:32:15.087Z,9.60
2023-06-23T10:33:14.159Z,9.10
2023-06-23T10:34:14.121Z,10.80
2023-06-23T10:35:14.066Z,9.90
2023-06-23T10:36:14.041Z,13.70
2023-06-23T10:37:14.168Z,10.80
2023-06-23T10:38:14.051Z,8.70
2023-06-23T10:39:14.124Z,8.10
2023-06-23T10:40:14.104Z,9.10
2023-06-23T10:41:14.046Z,9.70
2023-06-23T10:42:14.078Z,8.90
2023-06-23T10:43:13.964Z,8.90
2023-06-23T10:44:14.056Z,8.30
2023-06-23T10:45:13.981Z,8.60
2023-06-23T10:46:14.012Z,7.70
2023-06-23T10:47:13.927Z,9.80
2023-06-23T10:48:14.056Z,9.90
2023-06-23T10:49:13.928Z,7.80
2023-06-23T10:50:14.065Z,7.10
2023-06-23T10:51:13.925Z,7.50
2023-06-23T10:52:13.883Z,7.90
2023-06-23T10:53:14.012Z,8.70
2023-06-23T10:54:13.859Z,9.30
2023-06-23T10:55:13.975Z,8.50
2023-06-23T10:56:16.000Z,8.40
2023-06-23T10:57:14.021Z,8.30
2023-06-23T10:58:13.847Z,7.60
2023-06-23T10:59:13.781Z,8.20
2023-06-23T11:00:13.805Z,6.90
2023-06-23T11:01:13.903Z,6.60
2023-06-23T11:02:13.808Z,6.50
2023-06-23T11:03:13.921Z,7.00
2023-06-23T11:04:13.762Z,7.20
2023-06-23T11:05:13.977Z,7.60
2023-06-23T11:06:14.062Z,9.40
2023-06-23T11:07:13.759Z,6.60
2023-06-23T11:08:13.708Z,6.80
2023-06-23T11:09:13.803Z,7.70
2023-06-23T11:10:13.782Z,7.80
2023-06-23T11:11:13.861Z,8.00
2023-06-23T11:12:13.807Z,8.10
2023-06-23T11:13:13.968Z,6.40
2023-06-23T11:14:13.798Z,7.30
2023-06-23T11:15:13.803Z,8.40
2023-06-23T11:16:13.674Z,7.10
2023-06-23T11:17:13.763Z,5.60
2023-06-23T11:18:14.079Z,7.30
2023-06-23T11:19:13.739Z,6.90
2023-06-23T11:20:13.896Z,9.80
2023-06-23T11:21:13.618Z,7.10
2023-06-23T11:22:13.599Z,7.80
2023-06-23T11:23:14.184Z,7.90
2023-06-23T11:24:13.683Z,6.40
2023-06-23T11:25:13.697Z,7.40
2023-06-23T11:26:13.666Z,7.40
2023-06-23T11:27:13.723Z,5.70
2023-06-23T11:28:13.537Z,6.30
2023-06-23T11:29:13.733Z,5.80
2023-06-23T11:30:13.533Z,5.00
2023-06-23T11:31:13.786Z,5.70
2023-06-23T11:32:13.659Z,7.60
2023-06-23T11:33:13.582Z,6.20
2023-06-23T11:34:13.589Z,6.60
2023-06-23T11:35:13.970Z,8.30
2023-06-23T11:36:13.576Z,7.00
2023-06-23T11:37:13.517Z,6.70
2023-06-23T11:38:13.562Z,5.20
2023-06-23T11:39:13.431Z,6.00
2023-06-23T11:40:13.430Z,9.40
2023-06-23T11:41:13.571Z,8.30
2023-06-23T11:42:13.450Z,6.90
2023-06-23T11:43:24.864Z,6.50
2023-06-23T11:44:13.798Z,5.50
2023-06-23T11:45:13.654Z,7.20
2023-06-23T11:46:13.432Z,5.80
2023-06-23T11:47:13.330Z,8.20
2023-06-23T11:48:13.427Z,8.30
2023-06-23T11:49:13.348Z,6.00
2023-06-23T11:50:13.427Z,7.50
2023-06-23T11:51:13.331Z,6.50
2023-06-23T11:52:13.364Z,3.80
2023-06-23T11:53:13.351Z,6.80
2023-06-23T11:54:13.254Z,5.20
2023-06-23T11:55:13.228Z,6.40
2023-06-23T11:56:13.206Z,5.00
2023-06-23T11:57:13.289Z,5.40
2023-06-23T11:58:13.244Z,6.10
2023-06-23T11:59:13.280Z,4.50
2023-06-23T12:00:13.182Z,5.30
2023-06-23T12:01:13.152Z,5.40
2023-06-23T12:02:13.171Z,6.10
2023-06-23T12:03:13.190Z,8.30
2023-06-23T12:04:13.266Z,7.10
2023-06-23T12:05:13.277Z,6.50
2023-06-23T12:06:13.119Z,5.30
2023-06-23T12:07:13.134Z,6.10
2023-06-23T12:08:13.098Z,4.80
2023-06-23T12:09:13.135Z,5.20
2023-06-23T12:10:13.136Z,6.80
2023-06-23T12:11:13.097Z,5.20
2023-06-23T12:12:16.067Z,5.20
2023-06-23T12:13:13.113Z,5.20
2023-06-23T12:14:13.038Z,4.40
2023-06-23T12:15:13.202Z,4.70
2023-06-23T12:16:13.042Z,3.70
2023-06-23T12:17:13.294Z,5.00
2023-06-23T12:18:13.012Z,6.20
2023-06-23T12:19:13.014Z,4.80
2023-06-23T12:20:13.003Z,5.90
2023-06-23T12:21:12.981Z,6.00
2023-06-23T12:22:12.954Z,4.30
2023-06-23T12:23:12.995Z,4.10
2023-06-23T12:24:12.917Z,5.70
2023-06-23T12:25:13.001Z,5.50
2023-06-23T12:26:12.987Z,4.40
2023-06-23T12:27:12.884Z,7.70
2023-06-23T12:28:12.885Z,3.60
2023-06-23T12:29:12.946Z,5.60
2023-06-23T12:30:12.890Z,5.30
2023-06-23T12:31:12.885Z,5.50
2023-06-23T12:32:12.885Z,5.50
2023-06-23T12:33:12.948Z,5.40
2023-06-23T12:34:13.061Z,6.00
2023-06-23T12:35:12.876Z,4.80
2023-06-23T12:36:12.873Z,5.30
2023-06-23T12:37:15.528Z,5.90
2023-06-23T12:38:12.833Z,6.10
2023-06-23T12:39:12.817Z,5.80
2023-06-23T12:40:12.775Z,5.60
2023-06-23T12:41:12.783Z,5.70
2023-06-23T12:42:12.799Z,4.90
2023-06-23T12:43:12.768Z,5.40
2023-06-23T12:44:12.812Z,6.70
2023-06-23T12:45:12.752Z,5.80
2023-06-23T12:46:12.744Z,5.00
2023-06-23T12:47:12.833Z,5.60
2023-06-23T12:48:12.789Z,4.80
2023-06-23T12:49:12.777Z,5.00
2023-06-23T12:50:15.563Z,4.70
2023-06-23T12:51:12.675Z,5.70
2023-06-23T12:52:12.655Z,5.40
2023-06-23T12:53:12.611Z,4.40
2023-06-23T12:54:12.618Z,4.50
2023-06-23T12:55:12.628Z,5.50
2023-06-23T12:56:12.588Z,5.10
2023-06-23T12:57:12.564Z,5.50
2023-06-23T12:58:12.610Z,7.00
2023-06-23T12:59:12.565Z,6.50
2023-06-23T13:00:12.554Z,5.60
2023-06-23T13:01:12.598Z,4.10
2023-06-23T13:02:12.586Z,4.70
2023-06-23T13:03:12.676Z,7.20
2023-06-23T13:04:12.565Z,4.50
2023-06-23T13:05:12.479Z,5.30
2023-06-23T13:06:12.561Z,5.30
2023-06-23T13:07:12.509Z,5.50
2023-06-23T13:08:12.484Z,5.00
2023-06-23T13:09:12.494Z,4.20
2023-06-23T13:10:12.460Z,5.30
2023-06-23T13:11:12.483Z,4.80
2023-06-23T13:12:12.429Z,4.50